sensor_id;sensor_type;location;lat;lon;timestamp;temperature;humidity
20380;DHT22;10349;48.666;8.948;2023-07-09T00:02:16;20.90;99.90
20380;DHT22;10349;48.666;8.948;2023-07-09T00:04:42;20.80;99.90
20380;DHT22;10349;48.666;8.948;2023-07-09T00:07:18;20.80;99.90
20380;DHT22;10349;48.666;8.948;2023-07-09T00:09:44;20.80;99.90
20380;DHT22;10349;48.666;8.948;2023-07-09T00:12:14;20.80;99.90
20380;DHT22;10349;48.666;8.948;2023-07-09T00:14:40;20.80;99.90
20380;DHT22;10349;48.666;8.948;2023-07-09T00:17:34;20.80;99.90
20380;DHT22;10349;48.666;8.948;2023-07-09T00:20:00;20.70;99.90
20380;DHT22;10349;48.666;8.948;2023-07-09T00:22:26;20.70;99.90
20380;DHT22;10349;48.666;8.948;2023-07-09T00:24:52;20.80;99.90
20380;DHT22;10349;48.666;8.948;2023-07-09T00:27:26;20.70;99.90
20380;DHT22;10349;48.666;8.948;2023-07-09T00:29:53;20.70;99.90
20380;DHT22;10349;48.666;8.948;2023-07-09T00:32:19;20.60;99.90
20380;DHT22;10349;48.666;8.948;2023-07-09T00:34:51;20.60;99.90
20380;DHT22;10349;48.666;8.948;2023-07-09T00:37:20;20.70;99.90
20380;DHT22;10349;48.666;8.948;2023-07-09T00:39:47;20.60;99.90
20380;DHT22;10349;48.666;8.948;2023-07-09T00:42:21;20.60;99.90
20380;DHT22;10349;48.666;8.948;2023-07-09T00:44:51;20.50;99.90
20380;DHT22;10349;48.666;8.948;2023-07-09T00:47:25;20.50;99.90
20380;DHT22;10349;48.666;8.948;2023-07-09T00:50:20;20.50;99.90
20380;DHT22;10349;48.666;8.948;2023-07-09T00:52:53;20.40;99.90
20380;DHT22;10349;48.666;8.948;2023-07-09T00:55:23;20.40;99.90
20380;DHT22;10349;48.666;8.948;2023-07-09T00:57:53;20.40;99.90
20380;DHT22;10349;48.666;8.948;2023-07-09T01:00:39;20.40;99.90
20380;DHT22;10349;48.666;8.948;2023-07-09T01:03:20;20.40;99.90
20380;DHT22;10349;48.666;8.948;2023-07-09T01:05:48;20.40;99.90
20380;DHT22;10349;48.666;8.948;2023-07-09T01:08:21;20.40;99.90
20380;DHT22;10349;48.666;8.948;2023-07-09T01:10:47;20.30;99.90
20380;DHT22;10349;48.666;8.948;2023-07-09T01:13:13;20.20;99.90
20380;DHT22;10349;48.666;8.948;2023-07-09T01:15:39;20.10;99.90
20380;DHT22;10349;48.666;8.948;2023-07-09T01:18:06;20.10;99.90
20380;DHT22;10349;48.666;8.948;2023-07-09T01:20:32;20.00;99.90
20380;DHT22;10349;48.666;8.948;2023-07-09T01:22:58;20.10;99.90
20380;DHT22;10349;48.666;8.948;2023-07-09T01:25:27;20.00;99.90
20380;DHT22;10349;48.666;8.948;2023-07-09T01:27:54;19.90;99.90
20380;DHT22;10349;48.666;8.948;2023-07-09T01:30:27;19.90;99.90
20380;DHT22;10349;48.666;8.948;2023-07-09T01:32:57;19.80;99.90
20380;DHT22;10349;48.666;8.948;2023-07-09T01:35:24;19.80;99.90
20380;DHT22;10349;48.666;8.948;2023-07-09T01:37:50;19.80;99.90
20380;DHT22;10349;48.666;8.948;2023-07-09T01:40:19;19.80;99.90
20380;DHT22;10349;48.666;8.948;2023-07-09T01:42:45;19.70;99.90
20380;DHT22;10349;48.666;8.948;2023-07-09T01:45:12;19.70;99.90
20380;DHT22;10349;48.666;8.948;2023-07-09T01:47:38;19.70;99.90
20380;DHT22;10349;48.666;8.948;2023-07-09T01:50:06;19.70;99.90
20380;DHT22;10349;48.666;8.948;2023-07-09T01:52:32;19.60;99.90
20380;DHT22;10349;48.666;8.948;2023-07-09T01:55:00;19.60;99.90
20380;DHT22;10349;48.666;8.948;2023-07-09T01:57:30;19.60;99.90
20380;DHT22;10349;48.666;8.948;2023-07-09T02:00:08;19.60;99.90
20380;DHT22;10349;48.666;8.948;2023-07-09T02:02:44;19.60;99.90
20380;DHT22;10349;48.666;8.948;2023-07-09T02:05:15;19.60;99.90
20380;DHT22;10349;48.666;8.948;2023-07-09T02:07:41;19.60;99.90
20380;DHT22;10349;48.666;8.948;2023-07-09T02:10:07;19.60;99.90
20380;DHT22;10349;48.666;8.948;2023-07-09T02:12:33;19.50;99.90
20380;DHT22;10349;48.666;8.948;2023-07-09T02:14:59;19.50;99.90
20380;DHT22;10349;48.666;8.948;2023-07-09T02:17:25;19.40;99.90
20380;DHT22;10349;48.666;8.948;2023-07-09T02:19:51;19.30;99.90
20380;DHT22;10349;48.666;8.948;2023-07-09T02:22:17;19.30;99.90
20380;DHT22;10349;48.666;8.948;2023-07-09T02:24:44;19.20;99.90
20380;DHT22;10349;48.666;8.948;2023-07-09T02:27:11;19.30;99.90
20380;DHT22;10349;48.666;8.948;2023-07-09T02:29:37;19.20;99.90
20380;DHT22;10349;48.666;8.948;2023-07-09T02:32:04;19.10;99.90
20380;DHT22;10349;48.666;8.948;2023-07-09T02:34:30;19.20;99.90
20380;DHT22;10349;48.666;8.948;2023-07-09T02:36:57;19.20;99.90
20380;DHT22;10349;48.666;8.948;2023-07-09T02:39:24;19.20;99.90
20380;DHT22;10349;48.666;8.948;2023-07-09T02:41:50;19.20;99.90
20380;DHT22;10349;48.666;8.948;2023-07-09T02:44:17;19.30;99.90
20380;DHT22;10349;48.666;8.948;2023-07-09T02:46:43;19.30;99.90
20380;DHT22;10349;48.666;8.948;2023-07-09T02:49:11;19.30;99.90
20380;DHT22;10349;48.666;8.948;2023-07-09T02:51:37;19.30;99.90
20380;DHT22;10349;48.666;8.948;2023-07-09T02:54:04;19.30;99.90
20380;DHT22;10349;48.666;8.948;2023-07-09T02:56:30;19.20;99.90
20380;DHT22;10349;48.666;8.948;2023-07-09T02:58:56;19.20;99.90
20380;DHT22;10349;48.666;8.948;2023-07-09T03:01:23;19.10;99.90
20380;DHT22;10349;48.666;8.948;2023-07-09T03:03:53;19.10;99.90
20380;DHT22;10349;48.666;8.948;2023-07-09T03:06:21;19.00;99.90
20380;DHT22;10349;48.666;8.948;2023-07-09T03:08:47;19.00;99.90
20380;DHT22;10349;48.666;8.948;2023-07-09T03:11:15;19.00;99.90
20380;DHT22;10349;48.666;8.948;2023-07-09T03:13:41;18.90;99.90
20380;DHT22;10349;48.666;8.948;2023-07-09T03:16:06;18.80;99.90
20380;DHT22;10349;48.666;8.948;2023-07-09T03:18:32;18.80;99.90
20380;DHT22;10349;48.666;8.948;2023-07-09T03:20:58;18.80;99.90
20380;DHT22;10349;48.666;8.948;2023-07-09T03:23:25;18.70;99.90
20380;DHT22;10349;48.666;8.948;2023-07-09T03:25:51;18.70;99.90
20380;DHT22;10349;48.666;8.948;2023-07-09T03:28:17;18.60;99.90
20380;DHT22;10349;48.666;8.948;2023-07-09T03:30:44;18.70;99.90
20380;DHT22;10349;48.666;8.948;2023-07-09T03:33:11;18.60;99.90
20380;DHT22;10349;48.666;8.948;2023-07-09T03:35:37;18.60;99.90
20380;DHT22;10349;48.666;8.948;2023-07-09T03:38:06;18.60;99.90
20380;DHT22;10349;48.666;8.948;2023-07-09T03:40:33;18.50;99.90
20380;DHT22;10349;48.666;8.948;2023-07-09T03:42:59;18.50;99.90
20380;DHT22;10349;48.666;8.948;2023-07-09T03:45:31;18.50;99.90
20380;DHT22;10349;48.666;8.948;2023-07-09T03:47:57;18.50;99.90
20380;DHT22;10349;48.666;8.948;2023-07-09T03:50:23;18.50;99.90
20380;DHT22;10349;48.666;8.948;2023-07-09T03:52:48;18.50;99.90
20380;DHT22;10349;48.666;8.948;2023-07-09T03:55:14;18.40;99.90
20380;DHT22;10349;48.666;8.948;2023-07-09T03:57:40;18.50;99.90
20380;DHT22;10349;48.666;8.948;2023-07-09T04:00:07;18.50;99.90
20380;DHT22;10349;48.666;8.948;2023-07-09T04:02:44;18.50;99.90
20380;DHT22;10349;48.666;8.948;2023-07-09T04:05:10;18.50;99.90
20380;DHT22;10349;48.666;8.948;2023-07-09T04:07:37;18.40;99.90
20380;DHT22;10349;48.666;8.948;2023-07-09T04:10:04;18.50;99.90
20380;DHT22;10349;48.666;8.948;2023-07-09T04:12:30;18.40;99.90
20380;DHT22;10349;48.666;8.948;2023-07-09T04:14:55;18.50;99.90
20380;DHT22;10349;48.666;8.948;2023-07-09T04:17:21;18.40;99.90
20380;DHT22;10349;48.666;8.948;2023-07-09T04:19:49;18.40;99.90
20380;DHT22;10349;48.666;8.948;2023-07-09T04:22:15;18.40;99.90
20380;DHT22;10349;48.666;8.948;2023-07-09T04:24:40;18.40;99.90
20380;DHT22;10349;48.666;8.948;2023-07-09T04:27:06;18.40;99.90
20380;DHT22;10349;48.666;8.948;2023-07-09T04:29:33;18.60;99.90
20380;DHT22;10349;48.666;8.948;2023-07-09T04:32:08;18.80;99.90
20380;DHT22;10349;48.666;8.948;2023-07-09T04:34:37;18.90;99.90
20380;DHT22;10349;48.666;8.948;2023-07-09T04:37:08;19.00;99.90
20380;DHT22;10349;48.666;8.948;2023-07-09T04:39:34;19.10;99.90
20380;DHT22;10349;48.666;8.948;2023-07-09T04:42:06;19.30;99.90
20380;DHT22;10349;48.666;8.948;2023-07-09T04:44:35;19.50;99.90
20380;DHT22;10349;48.666;8.948;2023-07-09T04:47:01;19.70;99.90
20380;DHT22;10349;48.666;8.948;2023-07-09T04:49:27;19.90;99.90
20380;DHT22;10349;48.666;8.948;2023-07-09T04:51:52;20.10;99.90
20380;DHT22;10349;48.666;8.948;2023-07-09T04:54:18;20.40;99.90
20380;DHT22;10349;48.666;8.948;2023-07-09T04:56:44;20.90;99.90
20380;DHT22;10349;48.666;8.948;2023-07-09T04:59:11;21.30;99.90
20380;DHT22;10349;48.666;8.948;2023-07-09T05:01:37;21.70;99.90
20380;DHT22;10349;48.666;8.948;2023-07-09T05:04:03;22.10;99.90
20380;DHT22;10349;48.666;8.948;2023-07-09T05:06:28;22.50;99.90
20380;DHT22;10349;48.666;8.948;2023-07-09T05:08:54;23.00;99.90
20380;DHT22;10349;48.666;8.948;2023-07-09T05:11:20;23.30;99.90
20380;DHT22;10349;48.666;8.948;2023-07-09T05:13:46;23.60;99.90
20380;DHT22;10349;48.666;8.948;2023-07-09T05:16:12;23.90;99.90
20380;DHT22;10349;48.666;8.948;2023-07-09T05:18:37;24.30;99.90
20380;DHT22;10349;48.666;8.948;2023-07-09T05:21:03;24.80;99.90
20380;DHT22;10349;48.666;8.948;2023-07-09T05:23:29;25.10;99.90
20380;DHT22;10349;48.666;8.948;2023-07-09T05:25:58;25.30;99.90
20380;DHT22;10349;48.666;8.948;2023-07-09T05:28:24;25.10;99.90
20380;DHT22;10349;48.666;8.948;2023-07-09T05:30:50;25.10;99.90
20380;DHT22;10349;48.666;8.948;2023-07-09T05:33:17;24.70;99.90
20380;DHT22;10349;48.666;8.948;2023-07-09T05:35:44;24.50;99.90
20380;DHT22;10349;48.666;8.948;2023-07-09T05:38:10;24.30;99.90
20380;DHT22;10349;48.666;8.948;2023-07-09T05:40:36;24.40;99.90
20380;DHT22;10349;48.666;8.948;2023-07-09T05:43:01;24.40;99.90
20380;DHT22;10349;48.666;8.948;2023-07-09T05:45:27;24.60;99.90
20380;DHT22;10349;48.666;8.948;2023-07-09T05:47:53;25.10;99.90
20380;DHT22;10349;48.666;8.948;2023-07-09T05:50:18;25.60;99.90
20380;DHT22;10349;48.666;8.948;2023-07-09T05:52:44;26.00;99.90
20380;DHT22;10349;48.666;8.948;2023-07-09T05:55:10;26.30;99.90
20380;DHT22;10349;48.666;8.948;2023-07-09T05:57:35;26.60;99.90
20380;DHT22;10349;48.666;8.948;2023-07-09T06:00:07;26.80;99.90
20380;DHT22;10349;48.666;8.948;2023-07-09T06:02:39;26.60;99.90
20380;DHT22;10349;48.666;8.948;2023-07-09T06:05:05;26.60;99.90
20380;DHT22;10349;48.666;8.948;2023-07-09T06:07:34;26.60;99.90
20380;DHT22;10349;48.666;8.948;2023-07-09T06:10:01;26.80;99.90
20380;DHT22;10349;48.666;8.948;2023-07-09T06:12:27;26.70;99.90
20380;DHT22;10349;48.666;8.948;2023-07-09T06:14:52;26.80;99.90
20380;DHT22;10349;48.666;8.948;2023-07-09T06:17:18;27.00;99.90
20380;DHT22;10349;48.666;8.948;2023-07-09T06:19:43;27.00;99.90
20380;DHT22;10349;48.666;8.948;2023-07-09T06:22:15;27.30;99.90
20380;DHT22;10349;48.666;8.948;2023-07-09T06:24:41;27.20;99.90
20380;DHT22;10349;48.666;8.948;2023-07-09T06:27:06;27.30;99.90
20380;DHT22;10349;48.666;8.948;2023-07-09T06:29:32;27.60;99.90
20380;DHT22;10349;48.666;8.948;2023-07-09T06:31:58;27.70;99.90
20380;DHT22;10349;48.666;8.948;2023-07-09T06:34:23;27.90;99.90
20380;DHT22;10349;48.666;8.948;2023-07-09T06:36:49;27.80;99.90
20380;DHT22;10349;48.666;8.948;2023-07-09T06:39:15;28.00;99.90
20380;DHT22;10349;48.666;8.948;2023-07-09T06:41:41;28.20;99.90
20380;DHT22;10349;48.666;8.948;2023-07-09T06:44:27;28.30;99.90
20380;DHT22;10349;48.666;8.948;2023-07-09T06:46:53;28.30;99.90
20380;DHT22;10349;48.666;8.948;2023-07-09T06:49:18;28.40;99.90
20380;DHT22;10349;48.666;8.948;2023-07-09T06:51:44;28.40;99.90
20380;DHT22;10349;48.666;8.948;2023-07-09T06:54:12;28.30;99.90
20380;DHT22;10349;48.666;8.948;2023-07-09T06:56:37;28.50;99.90
20380;DHT22;10349;48.666;8.948;2023-07-09T06:59:03;28.40;99.90
20380;DHT22;10349;48.666;8.948;2023-07-09T07:01:30;28.40;99.90
20380;DHT22;10349;48.666;8.948;2023-07-09T07:03:55;28.60;99.90
20380;DHT22;10349;48.666;8.948;2023-07-09T07:06:21;28.50;99.90
20380;DHT22;10349;48.666;8.948;2023-07-09T07:08:47;28.60;99.90
20380;DHT22;10349;48.666;8.948;2023-07-09T07:11:13;28.70;99.90
20380;DHT22;10349;48.666;8.948;2023-07-09T07:13:39;28.80;99.90
20380;DHT22;10349;48.666;8.948;2023-07-09T07:16:09;28.90;99.90
20380;DHT22;10349;48.666;8.948;2023-07-09T07:18:35;29.00;99.90
20380;DHT22;10349;48.666;8.948;2023-07-09T07:21:01;29.20;99.90
20380;DHT22;10349;48.666;8.948;2023-07-09T07:23:26;29.10;99.90
20380;DHT22;10349;48.666;8.948;2023-07-09T07:25:52;29.00;99.90
20380;DHT22;10349;48.666;8.948;2023-07-09T07:28:18;29.20;99.90
20380;DHT22;10349;48.666;8.948;2023-07-09T07:30:44;29.40;99.90
20380;DHT22;10349;48.666;8.948;2023-07-09T07:33:10;29.60;99.90
20380;DHT22;10349;48.666;8.948;2023-07-09T07:35:37;29.60;99.90
20380;DHT22;10349;48.666;8.948;2023-07-09T07:38:03;29.70;99.90
20380;DHT22;10349;48.666;8.948;2023-07-09T07:40:29;29.90;99.90
20380;DHT22;10349;48.666;8.948;2023-07-09T07:42:54;29.90;99.90
20380;DHT22;10349;48.666;8.948;2023-07-09T07:45:20;29.90;99.90
20380;DHT22;10349;48.666;8.948;2023-07-09T07:47:46;29.60;99.90
20380;DHT22;10349;48.666;8.948;2023-07-09T07:50:12;29.70;99.90
20380;DHT22;10349;48.666;8.948;2023-07-09T07:52:38;29.50;99.90
20380;DHT22;10349;48.666;8.948;2023-07-09T07:55:07;29.60;99.90
20380;DHT22;10349;48.666;8.948;2023-07-09T07:57:33;29.80;99.90
20380;DHT22;10349;48.666;8.948;2023-07-09T07:59:59;30.00;99.90
20380;DHT22;10349;48.666;8.948;2023-07-09T08:02:24;30.20;99.90
20380;DHT22;10349;48.666;8.948;2023-07-09T08:04:50;30.30;99.90
20380;DHT22;10349;48.666;8.948;2023-07-09T08:07:18;30.40;99.90
20380;DHT22;10349;48.666;8.948;2023-07-09T08:09:45;30.50;99.90
20380;DHT22;10349;48.666;8.948;2023-07-09T08:12:12;30.60;99.90
20380;DHT22;10349;48.666;8.948;2023-07-09T08:14:39;30.60;99.90
20380;DHT22;10349;48.666;8.948;2023-07-09T08:17:05;30.60;99.90
20380;DHT22;10349;48.666;8.948;2023-07-09T08:19:32;30.70;99.90
20380;DHT22;10349;48.666;8.948;2023-07-09T08:22:08;30.70;99.90
20380;DHT22;10349;48.666;8.948;2023-07-09T08:24:34;30.80;99.90
20380;DHT22;10349;48.666;8.948;2023-07-09T08:26:59;30.90;99.90
20380;DHT22;10349;48.666;8.948;2023-07-09T08:29:26;30.70;99.90
20380;DHT22;10349;48.666;8.948;2023-07-09T08:31:51;30.70;99.90
20380;DHT22;10349;48.666;8.948;2023-07-09T08:34:17;30.70;99.90
20380;DHT22;10349;48.666;8.948;2023-07-09T08:36:43;30.70;99.90
20380;DHT22;10349;48.666;8.948;2023-07-09T08:39:10;30.70;99.90
20380;DHT22;10349;48.666;8.948;2023-07-09T08:41:45;30.80;99.90
20380;DHT22;10349;48.666;8.948;2023-07-09T08:47:22;30.70;99.90
20380;DHT22;10349;48.666;8.948;2023-07-09T08:49:55;30.80;99.90
20380;DHT22;10349;48.666;8.948;2023-07-09T08:52:28;31.00;99.90
20380;DHT22;10349;48.666;8.948;2023-07-09T08:54:57;31.20;99.90
20380;DHT22;10349;48.666;8.948;2023-07-09T08:57:31;31.40;99.90
20380;DHT22;10349;48.666;8.948;2023-07-09T09:00:14;31.60;99.90
20380;DHT22;10349;48.666;8.948;2023-07-09T09:03:08;31.70;99.90
20380;DHT22;10349;48.666;8.948;2023-07-09T09:05:39;31.80;99.90
20380;DHT22;10349;48.666;8.948;2023-07-09T09:11:06;32.00;99.90
20380;DHT22;10349;48.666;8.948;2023-07-09T09:13:32;32.00;99.90
20380;DHT22;10349;48.666;8.948;2023-07-09T09:16:04;32.10;99.90
20380;DHT22;10349;48.666;8.948;2023-07-09T09:18:40;32.20;99.90
20380;DHT22;10349;48.666;8.948;2023-07-09T09:21:19;32.20;99.90
20380;DHT22;10349;48.666;8.948;2023-07-09T09:23:50;32.10;99.90
20380;DHT22;10349;48.666;8.948;2023-07-09T09:26:32;32.20;99.90
20380;DHT22;10349;48.666;8.948;2023-07-09T09:28:58;32.20;99.90
20380;DHT22;10349;48.666;8.948;2023-07-09T09:31:27;32.50;99.90
20380;DHT22;10349;48.666;8.948;2023-07-09T09:33:53;32.50;99.90
20380;DHT22;10349;48.666;8.948;2023-07-09T09:36:24;32.60;99.90
20380;DHT22;10349;48.666;8.948;2023-07-09T09:38:51;32.20;99.90
20380;DHT22;10349;48.666;8.948;2023-07-09T09:41:19;32.30;99.90
20380;DHT22;10349;48.666;8.948;2023-07-09T09:43:47;32.30;99.90
20380;DHT22;10349;48.666;8.948;2023-07-09T09:46:21;32.40;99.90
20380;DHT22;10349;48.666;8.948;2023-07-09T09:48:49;32.50;99.90
20380;DHT22;10349;48.666;8.948;2023-07-09T09:51:17;32.60;99.90
20380;DHT22;10349;48.666;8.948;2023-07-09T09:53:51;32.60;99.90
20380;DHT22;10349;48.666;8.948;2023-07-09T09:56:27;32.60;99.90
20380;DHT22;10349;48.666;8.948;2023-07-09T09:58:54;32.70;99.80
20380;DHT22;10349;48.666;8.948;2023-07-09T10:01:26;32.80;99.90
20380;DHT22;10349;48.666;8.948;2023-07-09T10:03:56;32.90;99.80
20380;DHT22;10349;48.666;8.948;2023-07-09T10:11:58;33.00;99.90
20380;DHT22;10349;48.666;8.948;2023-07-09T10:14:45;33.30;99.40
20380;DHT22;10349;48.666;8.948;2023-07-09T10:22:50;33.40;99.10
20380;DHT22;10349;48.666;8.948;2023-07-09T10:36:30;33.90;98.60
20380;DHT22;10349;48.666;8.948;2023-07-09T10:39:10;33.60;97.90
20380;DHT22;10349;48.666;8.948;2023-07-09T10:41:38;33.70;98.10
20380;DHT22;10349;48.666;8.948;2023-07-09T10:44:25;33.80;97.70
20380;DHT22;10349;48.666;8.948;2023-07-09T10:46:57;33.80;98.00
20380;DHT22;10349;48.666;8.948;2023-07-09T10:49:30;33.80;97.40
20380;DHT22;10349;48.666;8.948;2023-07-09T10:52:07;34.00;97.60
20380;DHT22;10349;48.666;8.948;2023-07-09T10:54:59;34.00;97.20
20380;DHT22;10349;48.666;8.948;2023-07-09T11:00:18;33.80;97.10
20380;DHT22;10349;48.666;8.948;2023-07-09T11:02:44;33.90;97.10
20380;DHT22;10349;48.666;8.948;2023-07-09T11:05:11;34.00;97.90
20380;DHT22;10349;48.666;8.948;2023-07-09T11:07:55;33.80;96.30
20380;DHT22;10349;48.666;8.948;2023-07-09T11:10:25;33.80;95.90
20380;DHT22;10349;48.666;8.948;2023-07-09T11:13:11;33.80;97.30
20380;DHT22;10349;48.666;8.948;2023-07-09T11:15:45;33.90;96.50
20380;DHT22;10349;48.666;8.948;2023-07-09T11:18:20;34.00;96.90
20380;DHT22;10349;48.666;8.948;2023-07-09T11:20:55;33.90;96.50
20380;DHT22;10349;48.666;8.948;2023-07-09T11:23:25;33.80;97.20
20380;DHT22;10349;48.666;8.948;2023-07-09T11:26:12;33.90;97.20
20380;DHT22;10349;48.666;8.948;2023-07-09T11:28:50;33.80;97.30
20380;DHT22;10349;48.666;8.948;2023-07-09T11:31:25;33.90;96.60
20380;DHT22;10349;48.666;8.948;2023-07-09T11:34:14;34.00;96.80
20380;DHT22;10349;48.666;8.948;2023-07-09T11:37:01;34.00;96.20
20380;DHT22;10349;48.666;8.948;2023-07-09T11:44:54;33.90;96.50
20380;DHT22;10349;48.666;8.948;2023-07-09T11:47:33;33.60;96.30
20380;DHT22;10349;48.666;8.948;2023-07-09T11:50:13;33.40;96.90
20380;DHT22;10349;48.666;8.948;2023-07-09T11:52:45;33.40;97.20
20380;DHT22;10349;48.666;8.948;2023-07-09T11:55:41;33.60;97.20
20380;DHT22;10349;48.666;8.948;2023-07-09T11:58:11;33.70;96.50
20380;DHT22;10349;48.666;8.948;2023-07-09T12:00:57;33.80;95.90
20380;DHT22;10349;48.666;8.948;2023-07-09T12:03:32;33.80;95.60
20380;DHT22;10349;48.666;8.948;2023-07-09T12:06:13;33.80;96.30
20380;DHT22;10349;48.666;8.948;2023-07-09T12:08:41;34.00;95.40
20380;DHT22;10349;48.666;8.948;2023-07-09T12:11:29;34.10;95.30
20380;DHT22;10349;48.666;8.948;2023-07-09T12:14:20;34.20;95.10
20380;DHT22;10349;48.666;8.948;2023-07-09T12:16:53;34.30;95.20
20380;DHT22;10349;48.666;8.948;2023-07-09T12:19:21;34.50;94.70
20380;DHT22;10349;48.666;8.948;2023-07-09T12:21:57;34.60;94.80
20380;DHT22;10349;48.666;8.948;2023-07-09T12:24:30;34.60;94.60
20380;DHT22;10349;48.666;8.948;2023-07-09T12:27:14;34.60;94.10
20380;DHT22;10349;48.666;8.948;2023-07-09T12:29:42;34.60;94.40
20380;DHT22;10349;48.666;8.948;2023-07-09T12:32:16;34.50;94.10
20380;DHT22;10349;48.666;8.948;2023-07-09T12:34:42;34.50;94.30
20380;DHT22;10349;48.666;8.948;2023-07-09T12:37:14;34.40;94.00
20380;DHT22;10349;48.666;8.948;2023-07-09T12:39:40;34.30;93.70
20380;DHT22;10349;48.666;8.948;2023-07-09T12:42:16;34.20;94.10
20380;DHT22;10349;48.666;8.948;2023-07-09T12:44:42;34.10;94.00
20380;DHT22;10349;48.666;8.948;2023-07-09T12:47:15;34.00;94.30
20380;DHT22;10349;48.666;8.948;2023-07-09T12:49:44;34.00;94.30
20380;DHT22;10349;48.666;8.948;2023-07-09T12:52:19;34.20;94.40
20380;DHT22;10349;48.666;8.948;2023-07-09T12:54:59;34.30;95.40
20380;DHT22;10349;48.666;8.948;2023-07-09T12:57:25;34.30;93.80
20380;DHT22;10349;48.666;8.948;2023-07-09T12:59:51;34.30;94.20
20380;DHT22;10349;48.666;8.948;2023-07-09T13:02:24;34.40;94.30
20380;DHT22;10349;48.666;8.948;2023-07-09T13:05:00;34.30;93.10
20380;DHT22;10349;48.666;8.948;2023-07-09T13:07:27;34.30;93.80
20380;DHT22;10349;48.666;8.948;2023-07-09T13:09:54;34.30;93.50
20380;DHT22;10349;48.666;8.948;2023-07-09T13:12:29;34.40;92.50
20380;DHT22;10349;48.666;8.948;2023-07-09T13:14:56;34.50;92.50
20380;DHT22;10349;48.666;8.948;2023-07-09T13:17:22;34.70;92.10
20380;DHT22;10349;48.666;8.948;2023-07-09T13:19:48;34.70;92.20
20380;DHT22;10349;48.666;8.948;2023-07-09T13:22:18;34.70;91.60
20380;DHT22;10349;48.666;8.948;2023-07-09T13:24:45;34.80;91.40
20380;DHT22;10349;48.666;8.948;2023-07-09T13:27:15;34.90;91.40
20380;DHT22;10349;48.666;8.948;2023-07-09T13:29:41;35.00;91.00
20380;DHT22;10349;48.666;8.948;2023-07-09T13:32:15;35.00;90.90
20380;DHT22;10349;48.666;8.948;2023-07-09T13:34:42;35.10;91.10
20380;DHT22;10349;48.666;8.948;2023-07-09T13:37:13;35.10;89.90
20380;DHT22;10349;48.666;8.948;2023-07-09T13:39:40;35.20;90.50
20380;DHT22;10349;48.666;8.948;2023-07-09T13:42:11;35.30;90.90
20380;DHT22;10349;48.666;8.948;2023-07-09T13:44:38;35.50;90.00
20380;DHT22;10349;48.666;8.948;2023-07-09T13:47:04;35.50;88.50
20380;DHT22;10349;48.666;8.948;2023-07-09T13:49:31;35.50;89.30
20380;DHT22;10349;48.666;8.948;2023-07-09T13:51:58;35.60;90.40
20380;DHT22;10349;48.666;8.948;2023-07-09T13:54:28;35.60;88.60
20380;DHT22;10349;48.666;8.948;2023-07-09T13:57:01;35.70;89.90
20380;DHT22;10349;48.666;8.948;2023-07-09T13:59:28;35.80;88.90
20380;DHT22;10349;48.666;8.948;2023-07-09T14:01:56;35.80;88.40
20380;DHT22;10349;48.666;8.948;2023-07-09T14:04:23;35.90;90.70
20380;DHT22;10349;48.666;8.948;2023-07-09T14:06:49;35.90;88.60
20380;DHT22;10349;48.666;8.948;2023-07-09T14:09:15;35.80;88.80
20380;DHT22;10349;48.666;8.948;2023-07-09T14:11:50;35.90;90.30
20380;DHT22;10349;48.666;8.948;2023-07-09T14:14:43;36.10;88.70
20380;DHT22;10349;48.666;8.948;2023-07-09T14:17:12;36.20;89.60
20380;DHT22;10349;48.666;8.948;2023-07-09T14:19:38;36.20;88.30
20380;DHT22;10349;48.666;8.948;2023-07-09T14:22:32;36.30;88.90
20380;DHT22;10349;48.666;8.948;2023-07-09T14:24:59;36.30;88.80
20380;DHT22;10349;48.666;8.948;2023-07-09T14:27:25;36.30;86.90
20380;DHT22;10349;48.666;8.948;2023-07-09T14:29:51;36.40;87.80
20380;DHT22;10349;48.666;8.948;2023-07-09T14:32:34;36.40;87.50
20380;DHT22;10349;48.666;8.948;2023-07-09T14:35:12;36.40;86.50
20380;DHT22;10349;48.666;8.948;2023-07-09T14:37:38;36.30;84.50
20380;DHT22;10349;48.666;8.948;2023-07-09T14:40:04;36.20;86.60
20380;DHT22;10349;48.666;8.948;2023-07-09T14:42:30;36.30;87.70
20380;DHT22;10349;48.666;8.948;2023-07-09T14:44:56;36.30;84.40
20380;DHT22;10349;48.666;8.948;2023-07-09T14:47:22;36.30;84.40
20380;DHT22;10349;48.666;8.948;2023-07-09T14:49:49;36.30;85.70
20380;DHT22;10349;48.666;8.948;2023-07-09T14:52:18;36.40;86.20
20380;DHT22;10349;48.666;8.948;2023-07-09T14:54:45;36.60;86.60
20380;DHT22;10349;48.666;8.948;2023-07-09T14:57:20;36.70;84.70
20380;DHT22;10349;48.666;8.948;2023-07-09T14:59:47;36.90;84.90
20380;DHT22;10349;48.666;8.948;2023-07-09T15:02:30;37.00;84.00
20380;DHT22;10349;48.666;8.948;2023-07-09T15:04:57;36.80;83.80
20380;DHT22;10349;48.666;8.948;2023-07-09T15:07:22;36.50;86.10
20380;DHT22;10349;48.666;8.948;2023-07-09T15:09:48;36.50;87.70
20380;DHT22;10349;48.666;8.948;2023-07-09T15:12:19;36.40;86.10
20380;DHT22;10349;48.666;8.948;2023-07-09T15:14:45;36.20;87.00
20380;DHT22;10349;48.666;8.948;2023-07-09T15:17:12;36.20;87.00
20380;DHT22;10349;48.666;8.948;2023-07-09T15:19:38;36.10;86.90
20380;DHT22;10349;48.666;8.948;2023-07-09T15:22:04;36.00;86.60
20380;DHT22;10349;48.666;8.948;2023-07-09T15:24:32;36.10;86.90
20380;DHT22;10349;48.666;8.948;2023-07-09T15:27:00;36.10;86.50
20380;DHT22;10349;48.666;8.948;2023-07-09T15:29:27;36.10;86.40
20380;DHT22;10349;48.666;8.948;2023-07-09T15:31:53;36.20;87.30
20380;DHT22;10349;48.666;8.948;2023-07-09T15:34:19;36.40;89.30
20380;DHT22;10349;48.666;8.948;2023-07-09T15:36:49;36.40;87.30
20380;DHT22;10349;48.666;8.948;2023-07-09T15:39:16;36.20;88.80
20380;DHT22;10349;48.666;8.948;2023-07-09T15:41:43;35.90;85.00
20380;DHT22;10349;48.666;8.948;2023-07-09T15:44:16;35.90;86.60
20380;DHT22;10349;48.666;8.948;2023-07-09T15:46:50;36.00;87.30
20380;DHT22;10349;48.666;8.948;2023-07-09T15:49:16;35.80;86.60
20380;DHT22;10349;48.666;8.948;2023-07-09T15:51:42;35.70;85.30
20380;DHT22;10349;48.666;8.948;2023-07-09T15:54:18;35.50;86.20
20380;DHT22;10349;48.666;8.948;2023-07-09T15:56:46;35.30;87.00
20380;DHT22;10349;48.666;8.948;2023-07-09T15:59:31;35.30;86.60
20380;DHT22;10349;48.666;8.948;2023-07-09T16:01:58;35.30;88.20
20380;DHT22;10349;48.666;8.948;2023-07-09T16:04:25;35.40;88.00
20380;DHT22;10349;48.666;8.948;2023-07-09T16:06:50;35.40;87.40
20380;DHT22;10349;48.666;8.948;2023-07-09T16:09:17;35.40;87.90
20380;DHT22;10349;48.666;8.948;2023-07-09T16:11:45;35.40;86.80
20380;DHT22;10349;48.666;8.948;2023-07-09T16:14:30;35.40;85.40
20380;DHT22;10349;48.666;8.948;2023-07-09T16:16:58;35.30;85.80
20380;DHT22;10349;48.666;8.948;2023-07-09T16:19:25;35.30;88.30
20380;DHT22;10349;48.666;8.948;2023-07-09T16:21:54;35.20;85.80